Travis Air Force Base
KSUU : now visible

Airfield :











YOU CAN JOIN US ON...

 
LOGIN :

Register | Disclaimer

   EN    FR    IT 

 









Legend :    VFR   Marginal VFR   IFR   Intensive IFR   Very Intensive IFR
Visi :
Ceiling :
>= 8 km
>= 3000ft
5 to 8 km
1000 to 3000 ft
1500m to 5 km
500 to 1000 ft
800 to 1500m
200 to 500 ft
< 800m
< 200 ft
Symbols :   Thunderstorms  Fog  Heavy snow  Heavy precipitations  Wind > 20 kt







- Airport Elevation : 62 ft


KSUU - Travis Air Force Base

CURRENT METAR :
  • 210158Z AUTO 21007KT 10SM FEW090 SCT130 08/04 A2976 RMK AO2 SLP085 T00780040 $

EXPIRED METARs :
  • 210058Z AUTO 20007KT 10SM FEW130 10/04 A2978 RMK AO2 SLP091 T01030042 $
  • 202358Z AUTO 18006KT 10SM CLR 12/05 A2979 RMK AO2 SLP095 60001 T01190046 10171 20092 57023 $

TAF AMD TAF KSUU
Valid from the 20 at 22:00 until the 22 at 01:00 UTC


202226Z 2022/2201 01009KT 9999 -RA FEW045 BKN055 BKN075 BKN090 QNH2976INS
TEMPO 2022/2024 30015G25KT
BECMG 2100/2101 VRB06KT 9000 -SHRA BKN025 BKN170 QNH2974INS
BECMG 2105/2106 VRB06KT 9999 NSW BKN040 QNH2970INS
BECMG 2111/2112 33009KT 9999 FEW040 QNH2972INS
BECMG 2116/2117 35015G25KT 9999 FEW050 QNH2975INS TX10/2022Z TN01/2112Z
KZOA FIR / North America



MET'MAP, your aeronautical weather chart ! - Copyright ORBIFLY December 2007 - Disclaimer

ORBIFLY MET'MAP TEAM :

Programming & Development : Alexandra Zaïnal
Concept & Development : Baudouin d'Aumeries
Co-Development & Prog : Marc-Olivier Méhu
Technical & hardware support : Manuel Goepfert

Contact : metmap@orbifly.com




SOURCES & CREDITS :

   NOAA       Earth
Advisory